Denbigh, North Dakota
Current Conditions -  °F | °C
As of 9:55 PM on Tuesday 21 Oct 2014 (Local Time) from KRUG Reporting Station
Clear Clear  
Wind Chill: 63°   Ceiling: Unl
Heat Index: 63°   Visibility: 10mi
Dew Point: 45°   Wind: 18mph
Humidity: 52%   Direction: 150°SSE
Pressure: 29.66"   Gusts: 26mph
Location:  48.4251°N, 100.424°W
Report Text: KRUG 220255Z AUTO 15016G23KT 10SM CLR 17/07 A2966 RMK AO2
Loading
Personal Weather Stations






























Interactive Weather Map
Tropical Storm Tracking
New forecast layout! Learn more

10-Day Weather Forecast

Advertisements
Track Severe Weather on mobile